createdAt,value
2022-12-08T00:02:22.048Z,1.52
2022-12-08T00:05:08.312Z,1.55
2022-12-08T00:07:56.714Z,1.56
2022-12-08T00:10:48.569Z,1.57
2022-12-08T00:13:14.478Z,1.55
2022-12-08T00:15:43.020Z,1.56
2022-12-08T00:18:13.301Z,1.58
2022-12-08T00:20:41.958Z,1.60
2022-12-08T00:23:10.584Z,1.61
2022-12-08T00:25:39.249Z,1.62
2022-12-08T00:28:07.973Z,1.61
2022-12-08T00:30:36.541Z,1.61
2022-12-08T00:33:05.238Z,1.64
2022-12-08T00:35:40.093Z,1.62
2022-12-08T00:38:11.565Z,1.56
2022-12-08T00:40:44.479Z,1.57
2022-12-08T00:43:13.198Z,1.61
2022-12-08T00:45:42.142Z,1.66
2022-12-08T00:48:10.975Z,1.68
2022-12-08T00:50:40.903Z,1.65
2022-12-08T00:53:09.809Z,1.63
2022-12-08T00:55:38.418Z,1.66
2022-12-08T00:58:06.968Z,1.65
2022-12-08T01:00:35.567Z,1.61
2022-12-08T01:03:04.170Z,1.54
2022-12-08T01:05:32.766Z,1.48
2022-12-08T01:08:03.023Z,1.44
2022-12-08T01:10:31.708Z,1.42
2022-12-08T01:13:00.393Z,1.37
2022-12-08T01:15:29.022Z,1.32
2022-12-08T01:17:57.669Z,1.30
2022-12-08T01:20:26.639Z,1.27
2022-12-08T01:22:55.261Z,1.25
2022-12-08T01:25:25.505Z,1.25
2022-12-08T01:27:54.569Z,1.25
2022-12-08T01:30:23.239Z,1.18
2022-12-08T01:32:51.959Z,1.25
2022-12-08T01:35:20.594Z,1.19
2022-12-08T01:37:49.279Z,1.17
2022-12-08T01:40:18.501Z,1.11
2022-12-08T01:42:48.564Z,1.12
2022-12-08T01:45:22.854Z,1.07
2022-12-08T01:47:54.387Z,1.05
2022-12-08T01:50:23.842Z,1.01
2022-12-08T01:52:55.929Z,1.02
2022-12-08T01:55:27.259Z,0.97
2022-12-08T01:57:59.878Z,0.96
2022-12-08T02:00:28.498Z,0.97
2022-12-08T02:03:00.663Z,0.92
2022-12-08T02:05:31.293Z,0.90
2022-12-08T02:08:01.685Z,0.86
2022-12-08T02:10:31.929Z,0.82
2022-12-08T02:13:02.893Z,0.81
2022-12-08T02:15:38.086Z,0.77
2022-12-08T02:18:20.934Z,0.68
2022-12-08T02:20:57.433Z,0.60
2022-12-08T02:23:33.156Z,0.56
2022-12-08T02:26:44.846Z,0.55
2022-12-08T02:29:50.633Z,0.50
2022-12-08T02:32:42.253Z,0.45
2022-12-08T02:35:14.062Z,0.38
2022-12-08T02:37:45.434Z,0.39
2022-12-08T02:40:18.603Z,0.38
2022-12-08T02:42:50.867Z,0.37
2022-12-08T02:45:25.580Z,0.39
2022-12-08T02:47:54.326Z,0.35
2022-12-08T02:50:24.506Z,0.36
2022-12-08T02:52:53.081Z,0.34
2022-12-08T02:55:27.835Z,0.34
2022-12-08T02:58:31.955Z,0.34
2022-12-08T03:01:16.018Z,0.33
2022-12-08T03:03:50.626Z,0.32
2022-12-08T03:06:29.131Z,0.32
2022-12-08T03:09:01.394Z,0.33
2022-12-08T03:11:34.583Z,0.32
2022-12-08T03:14:05.042Z,0.32
2022-12-08T03:16:36.721Z,0.31
2022-12-08T03:19:09.921Z,0.28
2022-12-08T03:21:42.290Z,0.27
2022-12-08T03:24:11.615Z,0.22
2022-12-08T03:26:43.334Z,0.20
2022-12-08T03:29:12.243Z,0.18
2022-12-08T03:31:44.686Z,0.16
2022-12-08T03:34:14.680Z,0.13
2022-12-08T03:36:45.690Z,0.10
2022-12-08T03:39:14.703Z,0.03
2022-12-08T03:41:43.307Z,0.00
2022-12-08T03:44:12.124Z,-0.03
2022-12-08T03:46:40.793Z,-0.06
2022-12-08T03:49:09.423Z,-0.06
2022-12-08T03:51:38.218Z,-0.07
2022-12-08T03:54:08.370Z,-0.11
2022-12-08T03:59:08.638Z,-0.17
2022-12-08T04:01:37.435Z,-0.20
2022-12-08T04:04:06.504Z,-0.25
2022-12-08T04:06:35.237Z,-0.29
2022-12-08T04:09:03.852Z,-0.27
2022-12-08T04:11:33.931Z,-0.31
2022-12-08T04:14:02.575Z,-0.34
2022-12-08T04:16:31.508Z,-0.34
2022-12-08T04:19:00.349Z,-0.36
2022-12-08T04:21:29.243Z,-0.38
2022-12-08T04:24:01.228Z,-0.39
2022-12-08T04:26:30.263Z,-0.42
2022-12-08T04:29:00.441Z,-0.43
2022-12-08T04:31:29.181Z,-0.47
2022-12-08T04:33:57.968Z,-0.51
2022-12-08T04:36:26.765Z,-0.53
2022-12-08T04:38:55.445Z,-0.55
2022-12-08T04:41:24.101Z,-0.60
2022-12-08T04:43:52.710Z,-0.56
2022-12-08T04:46:22.878Z,-0.56
2022-12-08T04:48:51.517Z,-0.54
2022-12-08T04:51:21.189Z,-0.54
2022-12-08T04:53:49.787Z,-0.54
2022-12-08T04:56:20.770Z,-0.64
2022-12-08T04:58:49.576Z,-0.70
2022-12-08T05:01:18.217Z,-0.75
2022-12-08T05:03:48.344Z,-0.72
2022-12-08T05:06:16.972Z,-0.79
2022-12-08T05:08:45.873Z,-0.78
2022-12-08T05:11:15.134Z,-0.80
2022-12-08T05:13:43.879Z,-0.79
2022-12-08T05:16:14.520Z,-0.78
2022-12-08T05:18:44.248Z,-0.80
2022-12-08T05:21:14.249Z,-0.82
2022-12-08T05:23:42.989Z,-0.84
2022-12-08T05:26:11.629Z,-0.86
2022-12-08T05:28:42.274Z,-0.90
2022-12-08T05:31:11.729Z,-0.90
2022-12-08T05:33:40.527Z,-0.93
2022-12-08T05:36:09.966Z,-0.94
2022-12-08T05:38:40.011Z,-0.93
2022-12-08T05:41:08.826Z,-0.90
2022-12-08T05:43:37.664Z,-0.89
2022-12-08T05:46:07.227Z,-0.89
2022-12-08T05:48:36.008Z,-0.92
2022-12-08T05:51:05.535Z,-0.93
2022-12-08T05:53:34.438Z,-0.94
2022-12-08T05:56:04.633Z,-0.98
2022-12-08T05:58:33.288Z,-0.96
2022-12-08T06:01:02.217Z,-0.93
2022-12-08T06:03:31.278Z,-0.97
2022-12-08T06:06:00.078Z,-0.95
2022-12-08T06:08:28.730Z,-0.95
2022-12-08T06:10:57.633Z,-0.98
2022-12-08T06:13:27.698Z,-1.01
2022-12-08T06:15:56.289Z,-1.05
2022-12-08T06:18:29.683Z,-1.04
2022-12-08T06:21:05.565Z,-1.10
2022-12-08T06:23:35.242Z,-1.11
2022-12-08T06:26:05.448Z,-1.12
2022-12-08T06:28:38.976Z,-1.13
2022-12-08T06:31:12.536Z,-1.15
2022-12-08T06:33:42.127Z,-1.15
2022-12-08T06:36:14.661Z,-1.15
2022-12-08T06:38:44.214Z,-1.17
2022-12-08T06:41:14.946Z,-1.21
2022-12-08T06:43:46.215Z,-1.25
2022-12-08T06:46:18.874Z,-1.27
2022-12-08T06:48:50.711Z,-1.26
2022-12-08T06:51:22.948Z,-1.29
2022-12-08T06:53:51.646Z,-1.36
2022-12-08T06:56:22.465Z,-1.42
2022-12-08T06:58:53.240Z,-1.41
2022-12-08T07:01:22.164Z,-1.43
2022-12-08T07:03:50.995Z,-1.42
2022-12-08T07:06:22.060Z,-1.41
2022-12-08T07:08:51.110Z,-1.38
2022-12-08T07:11:22.168Z,-1.39
2022-12-08T07:13:52.759Z,-1.43
2022-12-08T07:16:21.567Z,-1.39
2022-12-08T07:18:50.343Z,-1.40
2022-12-08T07:21:19.606Z,-1.45
2022-12-08T07:23:55.775Z,-1.43
2022-12-08T07:26:26.953Z,-1.47
2022-12-08T07:28:57.111Z,-1.45
2022-12-08T07:31:28.536Z,-1.41
2022-12-08T07:33:58.036Z,-1.40
2022-12-08T07:36:26.968Z,-1.40
2022-12-08T07:38:56.822Z,-1.40
2022-12-08T07:41:26.815Z,-1.35
2022-12-08T07:43:58.124Z,-1.35
2022-12-08T07:46:27.492Z,-1.36
2022-12-08T07:48:57.074Z,-1.32
2022-12-08T07:51:25.904Z,-1.28
2022-12-08T07:53:55.439Z,-1.28
2022-12-08T07:56:24.959Z,-1.23
2022-12-08T07:58:53.762Z,-1.25
2022-12-08T08:01:26.000Z,-1.27
2022-12-08T08:03:55.473Z,-1.27
2022-12-08T08:06:24.382Z,-1.32
2022-12-08T08:08:53.163Z,-1.31
2022-12-08T08:11:22.081Z,-1.34
2022-12-08T08:13:50.910Z,-1.29
2022-12-08T08:16:20.233Z,-1.29
2022-12-08T08:18:51.289Z,-1.32
2022-12-08T08:24:09.814Z,-1.27
2022-12-08T08:26:38.654Z,-1.28
2022-12-08T08:29:07.510Z,-1.27
2022-12-08T08:31:36.539Z,-1.26
2022-12-08T08:34:06.815Z,-1.20
2022-12-08T08:36:35.543Z,-1.15
2022-12-08T08:39:04.719Z,-1.18
2022-12-08T08:41:33.415Z,-1.15
2022-12-08T08:44:02.232Z,-1.10
2022-12-08T08:46:31.079Z,-1.13
2022-12-08T08:49:00.034Z,-1.06
2022-12-08T08:51:30.162Z,-1.02
2022-12-08T08:53:59.301Z,-0.98
2022-12-08T08:56:28.021Z,-0.95
2022-12-08T08:58:57.040Z,-0.92
2022-12-08T09:01:27.416Z,-0.94
2022-12-08T09:03:56.684Z,-0.92
2022-12-08T09:06:25.957Z,-0.96
2022-12-08T09:08:56.162Z,-0.93
2022-12-08T09:11:25.131Z,-0.92
2022-12-08T09:13:54.449Z,-0.94
2022-12-08T09:16:24.098Z,-0.83
2022-12-08T09:18:52.995Z,-0.83
2022-12-08T09:21:23.683Z,-0.82
2022-12-08T09:23:53.533Z,-0.71
2022-12-08T09:26:24.080Z,-0.64
2022-12-08T09:28:53.464Z,-0.63
2022-12-08T09:31:23.214Z,-0.60
2022-12-08T09:33:52.739Z,-0.50
2022-12-08T09:36:21.819Z,-0.45
2022-12-08T09:38:51.634Z,-0.40
2022-12-08T09:41:37.527Z,-0.35
2022-12-08T09:44:22.576Z,-0.40
2022-12-08T09:46:54.240Z,-0.35
2022-12-08T09:49:24.992Z,-0.32
2022-12-08T09:51:53.820Z,-0.23
2022-12-08T09:54:24.146Z,-0.21
2022-12-08T09:56:56.221Z,-0.12
2022-12-08T09:59:26.977Z,-0.12
2022-12-08T10:01:56.725Z,-0.07
2022-12-08T10:04:27.244Z,0.04
2022-12-08T10:07:04.629Z,0.05
2022-12-08T10:09:39.889Z,0.09
2022-12-08T10:12:16.915Z,0.06
2022-12-08T10:14:49.168Z,0.18
2022-12-08T10:17:24.244Z,0.16
2022-12-08T10:19:57.024Z,0.20
2022-12-08T10:22:27.292Z,0.24
2022-12-08T10:25:00.795Z,0.33
2022-12-08T10:27:31.151Z,0.39
2022-12-08T10:29:59.931Z,0.47
2022-12-08T10:32:34.987Z,0.56
2022-12-08T10:35:05.165Z,0.63
2022-12-08T10:37:34.057Z,0.71
2022-12-08T10:40:06.224Z,0.73
2022-12-08T10:42:38.726Z,0.84
2022-12-08T10:45:24.308Z,0.95
2022-12-08T10:48:00.252Z,1.09
2022-12-08T10:50:36.609Z,1.20
2022-12-08T10:53:16.141Z,1.30
2022-12-08T10:55:46.532Z,1.37
2022-12-08T10:58:36.572Z,1.43
2022-12-08T11:01:11.009Z,1.47
2022-12-08T11:03:44.851Z,1.46
2022-12-08T11:06:16.685Z,1.52
2022-12-08T11:08:48.920Z,1.73
2022-12-08T11:11:17.865Z,1.82
2022-12-08T11:13:51.346Z,1.85
2022-12-08T11:16:21.222Z,1.87
2022-12-08T11:18:57.774Z,1.89
2022-12-08T11:21:36.459Z,1.85
2022-12-08T11:24:23.051Z,1.80
2022-12-08T11:26:54.576Z,1.79
2022-12-08T11:29:24.748Z,1.83
2022-12-08T11:31:55.818Z,1.80
2022-12-08T11:34:33.304Z,1.86
2022-12-08T11:37:02.323Z,1.83
2022-12-08T11:39:35.365Z,1.89
2022-12-08T11:42:05.318Z,1.93
2022-12-08T11:44:39.078Z,1.93
2022-12-08T11:47:13.314Z,1.95
2022-12-08T11:49:43.093Z,2.00
2022-12-08T11:52:19.186Z,2.09
2022-12-08T11:54:51.538Z,2.05
2022-12-08T11:57:22.583Z,2.15
2022-12-08T11:59:53.429Z,2.23
2022-12-08T12:02:23.296Z,2.29
2022-12-08T12:04:55.431Z,2.25
2022-12-08T12:07:45.406Z,2.32
2022-12-08T12:10:31.836Z,2.27
2022-12-08T12:13:09.729Z,2.31
2022-12-08T12:16:14.279Z,2.32
2022-12-08T12:18:46.359Z,2.37
2022-12-08T12:21:19.291Z,2.41
2022-12-08T12:23:50.787Z,2.41
2022-12-08T12:26:21.441Z,2.41
2022-12-08T12:28:53.042Z,2.43
2022-12-08T12:31:26.757Z,2.45
2022-12-08T12:33:58.754Z,2.44
2022-12-08T12:36:27.548Z,2.47
2022-12-08T12:39:04.030Z,2.45
2022-12-08T12:41:36.878Z,2.49
2022-12-08T12:44:13.645Z,2.49
2022-12-08T12:46:56.003Z,2.49
2022-12-08T12:49:53.234Z,2.50
2022-12-08T12:52:41.544Z,2.53
2022-12-08T12:55:58.421Z,2.53
2022-12-08T12:58:38.643Z,2.63
2022-12-08T13:01:56.467Z,2.57
2022-12-08T13:04:34.679Z,2.58
2022-12-08T13:07:03.785Z,2.58
2022-12-08T13:09:35.105Z,2.58
2022-12-08T13:12:11.179Z,2.63
2022-12-08T13:14:46.422Z,2.60
2022-12-08T13:17:17.763Z,2.61
2022-12-08T13:19:52.065Z,2.61
2022-12-08T13:22:54.651Z,2.60
2022-12-08T13:25:49.180Z,2.61
2022-12-08T13:28:27.195Z,2.59
2022-12-08T13:30:57.871Z,2.62
2022-12-08T13:33:29.547Z,2.61
2022-12-08T13:36:22.713Z,2.66
2022-12-08T13:38:55.793Z,2.65
2022-12-08T13:41:35.982Z,2.72
2022-12-08T13:45:03.595Z,2.68
2022-12-08T13:58:33.228Z,2.62
2022-12-08T14:01:06.520Z,2.63
2022-12-08T14:03:45.122Z,2.64
2022-12-08T14:06:29.938Z,2.64
2022-12-08T14:09:08.726Z,2.65
2022-12-08T14:11:41.288Z,2.64
2022-12-08T14:14:27.241Z,2.65
2022-12-08T14:17:04.884Z,2.73
2022-12-08T14:19:35.098Z,2.73
2022-12-08T14:22:11.025Z,2.71
2022-12-08T14:24:41.844Z,2.72
2022-12-08T14:27:13.635Z,2.68
2022-12-08T14:29:44.553Z,2.64
2022-12-08T14:32:30.396Z,2.64
2022-12-08T14:35:02.601Z,2.65
2022-12-08T14:37:34.415Z,2.65
2022-12-08T14:40:07.073Z,2.60
2022-12-08T14:42:45.143Z,2.60
2022-12-08T14:45:16.106Z,2.56
2022-12-08T14:47:45.617Z,2.55
2022-12-08T14:50:40.610Z,2.56
2022-12-08T14:53:15.082Z,2.50
2022-12-08T14:55:46.394Z,2.48
2022-12-08T14:58:22.003Z,2.49
2022-12-08T15:00:52.271Z,2.52
2022-12-08T15:03:23.655Z,2.54
2022-12-08T15:05:53.604Z,2.57
2022-12-08T15:08:22.266Z,2.56
2022-12-08T15:11:28.681Z,2.55
2022-12-08T15:13:57.634Z,2.56
2022-12-08T15:16:28.744Z,2.59
2022-12-08T15:19:09.687Z,2.56
2022-12-08T15:21:40.696Z,2.55
2022-12-08T15:24:12.715Z,2.56
2022-12-08T15:26:46.487Z,2.55
2022-12-08T15:29:21.182Z,2.53
2022-12-08T15:31:50.226Z,2.53
2022-12-08T15:34:19.165Z,2.54
2022-12-08T15:36:48.153Z,2.53
2022-12-08T15:39:26.784Z,2.53
2022-12-08T15:41:56.723Z,2.52
2022-12-08T15:44:25.494Z,2.52
2022-12-08T15:46:54.908Z,2.50
2022-12-08T15:49:25.026Z,2.48
2022-12-08T15:52:03.472Z,2.46
2022-12-08T15:54:39.362Z,2.48
2022-12-08T15:57:20.428Z,2.44
2022-12-08T15:59:54.582Z,2.42
2022-12-08T16:02:25.281Z,2.40
2022-12-08T16:05:40.149Z,2.40
2022-12-08T16:07:43.107Z,2.39
2022-12-08T16:10:17.947Z,2.37
2022-12-08T16:13:56.139Z,2.38
2022-12-08T16:16:00.697Z,2.37
2022-12-08T16:18:32.503Z,2.42
2022-12-08T16:21:41.722Z,2.43
2022-12-08T16:23:51.035Z,2.41
2022-12-08T16:27:06.911Z,2.37
2022-12-08T16:29:17.703Z,2.38
2022-12-08T16:31:46.616Z,2.40
2022-12-08T16:34:15.537Z,2.43
2022-12-08T16:36:44.200Z,2.35
2022-12-08T16:39:14.875Z,2.38
2022-12-08T16:42:01.096Z,2.31
2022-12-08T16:44:31.348Z,2.33
2022-12-08T16:46:59.978Z,2.28
2022-12-08T16:49:28.561Z,2.26
2022-12-08T16:51:57.101Z,2.27
2022-12-08T16:54:25.744Z,2.20
2022-12-08T16:56:54.346Z,2.22
2022-12-08T16:59:23.115Z,2.19
2022-12-08T17:01:53.119Z,2.14
2022-12-08T17:04:37.208Z,2.13
2022-12-08T17:07:06.063Z,2.17
2022-12-08T17:09:34.722Z,2.16
2022-12-08T17:12:04.516Z,2.14
2022-12-08T17:14:35.320Z,2.11
2022-12-08T17:17:06.288Z,2.14
2022-12-08T17:19:35.676Z,2.11
2022-12-08T17:22:04.614Z,2.08
2022-12-08T17:24:33.934Z,2.06
2022-12-08T17:27:04.541Z,2.07
2022-12-08T17:29:34.223Z,2.06
2022-12-08T17:32:04.621Z,2.04
2022-12-08T17:34:33.349Z,2.02
2022-12-08T17:37:02.062Z,2.05
2022-12-08T17:39:30.707Z,2.02
2022-12-08T17:41:59.400Z,2.05
2022-12-08T17:44:28.818Z,2.05
2022-12-08T17:46:57.567Z,2.02
2022-12-08T17:49:29.598Z,2.01
2022-12-08T17:51:59.916Z,2.00
2022-12-08T17:54:29.188Z,1.98
2022-12-08T17:56:58.836Z,1.99
2022-12-08T17:59:28.178Z,2.01
2022-12-08T18:01:57.948Z,2.02
2022-12-08T18:04:28.746Z,2.01
2022-12-08T18:06:59.383Z,1.99
2022-12-08T18:09:28.082Z,1.98
2022-12-08T18:11:56.742Z,1.99
2022-12-08T18:14:25.847Z,1.98
2022-12-08T18:16:54.703Z,1.96
2022-12-08T18:19:23.601Z,1.98
2022-12-08T18:21:54.596Z,2.02
2022-12-08T18:24:25.058Z,2.06
2022-12-08T18:26:55.109Z,2.12
2022-12-08T18:29:24.312Z,2.14
2022-12-08T18:31:53.614Z,2.11
2022-12-08T18:34:22.314Z,2.09
2022-12-08T18:36:51.052Z,2.09
2022-12-08T18:39:24.981Z,2.08
2022-12-08T18:41:54.665Z,2.09
2022-12-08T18:44:23.557Z,2.08
2022-12-08T18:46:52.467Z,2.13
2022-12-08T18:49:21.451Z,2.10
2022-12-08T18:51:50.054Z,2.07
2022-12-08T18:54:22.017Z,2.06
2022-12-08T18:56:54.665Z,2.03
2022-12-08T18:59:23.810Z,2.00
2022-12-08T19:01:52.610Z,1.97
2022-12-08T19:04:29.194Z,1.95
2022-12-08T19:06:58.835Z,1.95
2022-12-08T19:09:28.986Z,1.91
2022-12-08T19:11:59.476Z,1.89
2022-12-08T19:14:30.259Z,1.86
2022-12-08T19:16:59.105Z,1.83
2022-12-08T19:19:28.054Z,1.83
2022-12-08T19:21:56.796Z,1.82
2022-12-08T19:24:25.818Z,1.80
2022-12-08T19:26:54.553Z,1.79
2022-12-08T19:29:24.545Z,1.77
2022-12-08T19:31:53.417Z,1.77
2022-12-08T19:34:22.099Z,1.71
2022-12-08T19:36:50.976Z,1.69
2022-12-08T19:39:38.691Z,1.68
2022-12-08T19:42:31.807Z,1.65
2022-12-08T19:45:06.799Z,1.64
2022-12-08T19:47:35.329Z,1.61
2022-12-08T19:50:21.410Z,1.62
2022-12-08T19:52:50.056Z,1.58
2022-12-08T19:55:19.048Z,1.55
2022-12-08T19:57:47.729Z,1.52
2022-12-08T20:00:19.241Z,1.51
2022-12-08T20:02:48.436Z,1.49
2022-12-08T20:05:17.964Z,1.43
2022-12-08T20:07:46.957Z,1.42
2022-12-08T20:10:17.861Z,1.41
2022-12-08T20:12:46.551Z,1.39
2022-12-08T20:15:17.140Z,1.33
2022-12-08T20:17:45.858Z,1.31
2022-12-08T20:20:15.370Z,1.29
2022-12-08T20:22:45.296Z,1.27
2022-12-08T20:25:14.303Z,1.26
2022-12-08T20:27:43.524Z,1.24
2022-12-08T20:30:17.052Z,1.20
2022-12-08T20:32:47.688Z,1.18
2022-12-08T20:35:16.606Z,1.18
2022-12-08T20:37:45.963Z,1.15
2022-12-08T20:40:15.006Z,1.11
2022-12-08T20:42:44.024Z,1.09
2022-12-08T20:45:13.082Z,1.08
2022-12-08T20:47:41.820Z,1.05
2022-12-08T20:50:12.844Z,1.04
2022-12-08T20:52:41.816Z,1.02
2022-12-08T20:55:11.585Z,1.01
2022-12-08T20:57:40.228Z,0.99
2022-12-08T21:00:10.575Z,0.97
2022-12-08T21:02:45.107Z,0.96
2022-12-08T21:05:18.444Z,0.91
2022-12-08T21:07:48.024Z,0.90
2022-12-08T21:10:17.373Z,0.86
2022-12-08T21:12:46.350Z,0.84
2022-12-08T21:15:15.215Z,0.83
2022-12-08T21:17:44.134Z,0.78
2022-12-08T21:20:13.061Z,0.76
2022-12-08T21:22:43.230Z,0.74
2022-12-08T21:25:12.277Z,0.71
2022-12-08T21:27:41.289Z,0.69
2022-12-08T21:30:11.630Z,0.64
2022-12-08T21:32:41.260Z,0.64
2022-12-08T21:35:10.855Z,0.61
2022-12-08T21:37:39.702Z,0.59
2022-12-08T21:40:12.856Z,0.56
2022-12-08T21:42:45.017Z,0.53
2022-12-08T21:45:16.230Z,0.50
2022-12-08T21:47:45.830Z,0.51
2022-12-08T21:50:15.498Z,0.46
2022-12-08T21:52:46.436Z,0.44
2022-12-08T21:55:19.115Z,0.40
2022-12-08T21:57:48.499Z,0.37
2022-12-08T22:00:19.282Z,0.30
2022-12-08T22:02:48.847Z,0.29
2022-12-08T22:05:18.345Z,0.27
2022-12-08T22:07:47.580Z,0.20
2022-12-08T22:10:17.766Z,0.19
2022-12-08T22:12:46.699Z,0.10
2022-12-08T22:15:15.557Z,0.10
2022-12-08T22:17:45.640Z,0.10
2022-12-08T22:20:16.540Z,0.11
2022-12-08T22:22:45.572Z,0.10
2022-12-08T22:25:14.565Z,0.08
2022-12-08T22:27:44.491Z,0.05
2022-12-08T22:30:13.584Z,0.07
2022-12-08T22:32:42.712Z,0.06
2022-12-08T22:35:12.113Z,0.02
2022-12-08T22:37:40.837Z,-0.02
2022-12-08T22:40:11.186Z,-0.02
2022-12-08T22:42:40.275Z,-0.05
2022-12-08T22:45:11.596Z,-0.04
2022-12-08T22:47:40.284Z,-0.05
2022-12-08T22:50:09.590Z,-0.09
2022-12-08T22:52:38.841Z,-0.11
2022-12-08T22:55:08.644Z,-0.17
2022-12-08T22:57:37.369Z,-0.20
2022-12-08T23:00:07.565Z,-0.23
2022-12-08T23:02:38.793Z,-0.24
2022-12-08T23:05:08.158Z,-0.28
2022-12-08T23:07:37.098Z,-0.31
2022-12-08T23:10:07.712Z,-0.32
2022-12-08T23:12:37.166Z,-0.38
2022-12-08T23:15:07.171Z,-0.38
2022-12-08T23:17:37.365Z,-0.41
2022-12-08T23:20:07.431Z,-0.43
2022-12-08T23:22:36.525Z,-0.46
2022-12-08T23:25:06.171Z,-0.50
2022-12-08T23:27:35.166Z,-0.51
2022-12-08T23:30:04.501Z,-0.52
2022-12-08T23:32:33.686Z,-0.55
2022-12-08T23:35:03.995Z,-0.58
2022-12-08T23:37:33.030Z,-0.59
2022-12-08T23:40:01.879Z,-0.62
2022-12-08T23:42:31.125Z,-0.65
2022-12-08T23:44:59.864Z,-0.66
2022-12-08T23:47:28.937Z,-0.68
2022-12-08T23:49:57.860Z,-0.71
2022-12-08T23:52:28.024Z,-0.72
2022-12-08T23:54:57.126Z,-0.73
2022-12-08T23:57:25.923Z,-0.78
2022-12-08T23:59:54.571Z,-0.80
